sensor_id;sensor_type;location;lat;lon;timestamp;temperature;humidity
78184;DHT22;67442;44.570;18.610;2023-05-07T00:00:38;23.80;57.70
78184;DHT22;67442;44.570;18.610;2023-05-07T00:03:06;23.80;57.70
78184;DHT22;67442;44.570;18.610;2023-05-07T00:05:33;23.80;57.80
78184;DHT22;67442;44.570;18.610;2023-05-07T00:08:05;23.70;57.70
78184;DHT22;67442;44.570;18.610;2023-05-07T00:10:32;23.80;57.80
78184;DHT22;67442;44.570;18.610;2023-05-07T00:13:03;23.80;57.90
78184;DHT22;67442;44.570;18.610;2023-05-07T00:15:31;23.80;57.90
78184;DHT22;67442;44.570;18.610;2023-05-07T00:17:58;23.80;58.00
78184;DHT22;67442;44.570;18.610;2023-05-07T00:20:29;23.80;58.00
78184;DHT22;67442;44.570;18.610;2023-05-07T00:22:56;23.80;58.00
78184;DHT22;67442;44.570;18.610;2023-05-07T00:25:23;23.70;58.10
78184;DHT22;67442;44.570;18.610;2023-05-07T00:27:54;23.80;58.10
78184;DHT22;67442;44.570;18.610;2023-05-07T00:30:31;23.70;58.00
78184;DHT22;67442;44.570;18.610;2023-05-07T00:32:59;23.70;58.00
78184;DHT22;67442;44.570;18.610;2023-05-07T00:35:27;23.70;58.10
78184;DHT22;67442;44.570;18.610;2023-05-07T00:37:55;23.70;58.10
78184;DHT22;67442;44.570;18.610;2023-05-07T00:40:26;23.70;58.10
78184;DHT22;67442;44.570;18.610;2023-05-07T00:42:53;23.80;58.20
78184;DHT22;67442;44.570;18.610;2023-05-07T00:45:28;23.70;58.20
78184;DHT22;67442;44.570;18.610;2023-05-07T00:47:56;23.70;58.20
78184;DHT22;67442;44.570;18.610;2023-05-07T00:50:24;23.70;58.20
78184;DHT22;67442;44.570;18.610;2023-05-07T00:52:53;23.70;58.20
78184;DHT22;67442;44.570;18.610;2023-05-07T00:55:22;23.70;58.20
78184;DHT22;67442;44.570;18.610;2023-05-07T00:57:50;23.70;58.30
78184;DHT22;67442;44.570;18.610;2023-05-07T01:00:17;23.70;58.30
78184;DHT22;67442;44.570;18.610;2023-05-07T01:02:44;23.70;58.30
78184;DHT22;67442;44.570;18.610;2023-05-07T01:05:15;23.70;58.40
78184;DHT22;67442;44.570;18.610;2023-05-07T01:07:43;23.70;58.40
78184;DHT22;67442;44.570;18.610;2023-05-07T01:10:10;23.70;58.50
78184;DHT22;67442;44.570;18.610;2023-05-07T01:12:39;23.70;58.50
78184;DHT22;67442;44.570;18.610;2023-05-07T01:15:11;23.70;59.20
78184;DHT22;67442;44.570;18.610;2023-05-07T01:17:40;23.70;58.50
78184;DHT22;67442;44.570;18.610;2023-05-07T01:20:09;23.70;58.60
78184;DHT22;67442;44.570;18.610;2023-05-07T01:22:38;23.70;58.50
78184;DHT22;67442;44.570;18.610;2023-05-07T01:25:06;23.80;58.70
78184;DHT22;67442;44.570;18.610;2023-05-07T01:27:34;23.70;58.70
78184;DHT22;67442;44.570;18.610;2023-05-07T01:30:06;23.70;58.70
78184;DHT22;67442;44.570;18.610;2023-05-07T01:32:51;23.70;58.70
78184;DHT22;67442;44.570;18.610;2023-05-07T01:35:26;23.70;58.90
78184;DHT22;67442;44.570;18.610;2023-05-07T01:37:57;23.80;59.00
78184;DHT22;67442;44.570;18.610;2023-05-07T01:40:28;23.70;58.90
78184;DHT22;67442;44.570;18.610;2023-05-07T01:42:56;23.70;59.00
78184;DHT22;67442;44.570;18.610;2023-05-07T01:45:27;23.70;59.00
78184;DHT22;67442;44.570;18.610;2023-05-07T01:48:02;23.70;59.00
78184;DHT22;67442;44.570;18.610;2023-05-07T01:50:30;23.70;59.00
78184;DHT22;67442;44.570;18.610;2023-05-07T01:52:58;23.70;59.00
78184;DHT22;67442;44.570;18.610;2023-05-07T01:55:26;23.70;59.10
78184;DHT22;67442;44.570;18.610;2023-05-07T01:57:53;23.70;59.10
78184;DHT22;67442;44.570;18.610;2023-05-07T02:00:22;23.70;59.10
78184;DHT22;67442;44.570;18.610;2023-05-07T02:02:50;23.70;59.10
78184;DHT22;67442;44.570;18.610;2023-05-07T02:05:18;23.70;59.10
78184;DHT22;67442;44.570;18.610;2023-05-07T02:07:45;23.70;59.10
78184;DHT22;67442;44.570;18.610;2023-05-07T02:10:13;23.70;59.20
78184;DHT22;67442;44.570;18.610;2023-05-07T02:12:40;23.70;59.20
78184;DHT22;67442;44.570;18.610;2023-05-07T02:15:10;23.70;59.10
78184;DHT22;67442;44.570;18.610;2023-05-07T02:17:57;23.70;59.20
78184;DHT22;67442;44.570;18.610;2023-05-07T02:20:25;23.70;59.90
78184;DHT22;67442;44.570;18.610;2023-05-07T02:22:53;23.70;59.20
78184;DHT22;67442;44.570;18.610;2023-05-07T02:25:20;23.70;59.20
78184;DHT22;67442;44.570;18.610;2023-05-07T02:27:48;23.70;59.20
78184;DHT22;67442;44.570;18.610;2023-05-07T02:30:15;23.70;59.20
78184;DHT22;67442;44.570;18.610;2023-05-07T02:32:43;23.70;59.20
78184;DHT22;67442;44.570;18.610;2023-05-07T02:35:10;23.70;59.20
78184;DHT22;67442;44.570;18.610;2023-05-07T02:37:37;23.70;59.20
78184;DHT22;67442;44.570;18.610;2023-05-07T02:40:05;23.70;59.20
78184;DHT22;67442;44.570;18.610;2023-05-07T02:42:34;23.70;59.20
78184;DHT22;67442;44.570;18.610;2023-05-07T02:45:02;23.70;59.20
78184;DHT22;67442;44.570;18.610;2023-05-07T02:47:30;23.70;59.20
78184;DHT22;67442;44.570;18.610;2023-05-07T02:49:57;23.70;59.20
78184;DHT22;67442;44.570;18.610;2023-05-07T02:52:24;23.70;59.20
78184;DHT22;67442;44.570;18.610;2023-05-07T02:54:55;23.70;59.20
78184;DHT22;67442;44.570;18.610;2023-05-07T02:57:23;23.70;59.20
78184;DHT22;67442;44.570;18.610;2023-05-07T02:59:51;23.70;59.20
78184;DHT22;67442;44.570;18.610;2023-05-07T03:02:17;23.70;59.20
78184;DHT22;67442;44.570;18.610;2023-05-07T03:04:44;23.70;59.20
78184;DHT22;67442;44.570;18.610;2023-05-07T03:07:12;23.70;59.20
78184;DHT22;67442;44.570;18.610;2023-05-07T03:09:39;23.70;59.20
78184;DHT22;67442;44.570;18.610;2023-05-07T03:12:07;23.70;59.20
78184;DHT22;67442;44.570;18.610;2023-05-07T03:14:38;23.70;59.30
78184;DHT22;67442;44.570;18.610;2023-05-07T03:17:05;23.70;59.20
78184;DHT22;67442;44.570;18.610;2023-05-07T03:19:32;23.70;59.30
78184;DHT22;67442;44.570;18.610;2023-05-07T03:22:00;23.70;59.30
78184;DHT22;67442;44.570;18.610;2023-05-07T03:24:27;23.70;59.40
78184;DHT22;67442;44.570;18.610;2023-05-07T03:26:58;23.60;59.30
78184;DHT22;67442;44.570;18.610;2023-05-07T03:29:27;23.70;59.40
78184;DHT22;67442;44.570;18.610;2023-05-07T03:31:58;23.60;59.30
78184;DHT22;67442;44.570;18.610;2023-05-07T03:34:26;23.70;59.40
78184;DHT22;67442;44.570;18.610;2023-05-07T03:36:57;23.70;59.40
78184;DHT22;67442;44.570;18.610;2023-05-07T03:39:24;23.70;59.30
78184;DHT22;67442;44.570;18.610;2023-05-07T03:41:56;23.60;59.20
78184;DHT22;67442;44.570;18.610;2023-05-07T03:44:23;23.60;59.80
78184;DHT22;67442;44.570;18.610;2023-05-07T03:46:54;23.60;59.20
78184;DHT22;67442;44.570;18.610;2023-05-07T03:49:21;23.60;59.20
78184;DHT22;67442;44.570;18.610;2023-05-07T03:51:48;23.60;59.90
78184;DHT22;67442;44.570;18.610;2023-05-07T03:54:20;23.70;59.30
78184;DHT22;67442;44.570;18.610;2023-05-07T03:56:47;23.70;59.40
78184;DHT22;67442;44.570;18.610;2023-05-07T03:59:14;23.70;60.00
78184;DHT22;67442;44.570;18.610;2023-05-07T04:01:42;23.70;59.30
78184;DHT22;67442;44.570;18.610;2023-05-07T04:04:09;23.70;59.40
78184;DHT22;67442;44.570;18.610;2023-05-07T04:06:36;23.70;59.30
78184;DHT22;67442;44.570;18.610;2023-05-07T04:09:04;23.70;59.40
78184;DHT22;67442;44.570;18.610;2023-05-07T04:11:31;23.70;59.40
78184;DHT22;67442;44.570;18.610;2023-05-07T04:13:58;23.70;59.40
78184;DHT22;67442;44.570;18.610;2023-05-07T04:16:26;23.70;59.40
78184;DHT22;67442;44.570;18.610;2023-05-07T04:18:53;23.70;59.40
78184;DHT22;67442;44.570;18.610;2023-05-07T04:21:20;23.70;59.40
78184;DHT22;67442;44.570;18.610;2023-05-07T04:23:48;23.70;59.40
78184;DHT22;67442;44.570;18.610;2023-05-07T04:26:15;23.70;59.40
78184;DHT22;67442;44.570;18.610;2023-05-07T04:28:46;23.70;59.40
78184;DHT22;67442;44.570;18.610;2023-05-07T04:31:13;23.70;59.30
78184;DHT22;67442;44.570;18.610;2023-05-07T04:33:41;23.70;59.30
78184;DHT22;67442;44.570;18.610;2023-05-07T04:36:08;23.70;59.50
78184;DHT22;67442;44.570;18.610;2023-05-07T04:38:39;23.70;59.40
78184;DHT22;67442;44.570;18.610;2023-05-07T04:41:08;23.70;59.50
78184;DHT22;67442;44.570;18.610;2023-05-07T04:43:35;23.70;59.50
78184;DHT22;67442;44.570;18.610;2023-05-07T04:46:02;23.70;59.50
78184;DHT22;67442;44.570;18.610;2023-05-07T04:48:33;23.70;59.60
78184;DHT22;67442;44.570;18.610;2023-05-07T04:51:00;23.70;59.60
78184;DHT22;67442;44.570;18.610;2023-05-07T04:53:28;23.70;59.60
78184;DHT22;67442;44.570;18.610;2023-05-07T04:55:57;23.70;60.40
78184;DHT22;67442;44.570;18.610;2023-05-07T04:58:24;23.70;59.70
78184;DHT22;67442;44.570;18.610;2023-05-07T05:00:51;23.70;59.70
78184;DHT22;67442;44.570;18.610;2023-05-07T05:03:18;23.70;59.70
78184;DHT22;67442;44.570;18.610;2023-05-07T05:05:45;23.70;59.70
78184;DHT22;67442;44.570;18.610;2023-05-07T05:08:13;23.70;59.70
78184;DHT22;67442;44.570;18.610;2023-05-07T05:10:40;23.70;59.70
78184;DHT22;67442;44.570;18.610;2023-05-07T05:13:09;23.70;59.70
78184;DHT22;67442;44.570;18.610;2023-05-07T05:15:35;23.70;59.70
78184;DHT22;67442;44.570;18.610;2023-05-07T05:18:03;23.70;59.80
78184;DHT22;67442;44.570;18.610;2023-05-07T05:20:30;23.70;59.70
78184;DHT22;67442;44.570;18.610;2023-05-07T05:22:58;23.70;59.70
78184;DHT22;67442;44.570;18.610;2023-05-07T05:25:29;23.70;59.70
78184;DHT22;67442;44.570;18.610;2023-05-07T05:27:57;23.70;59.70
78184;DHT22;67442;44.570;18.610;2023-05-07T05:30:28;23.70;59.70
78184;DHT22;67442;44.570;18.610;2023-05-07T05:32:55;23.70;59.70
78184;DHT22;67442;44.570;18.610;2023-05-07T05:35:27;23.70;59.70
78184;DHT22;67442;44.570;18.610;2023-05-07T05:37:54;23.70;59.70
78184;DHT22;67442;44.570;18.610;2023-05-07T05:40:22;23.70;59.70
78184;DHT22;67442;44.570;18.610;2023-05-07T05:42:49;23.70;59.80
78184;DHT22;67442;44.570;18.610;2023-05-07T05:45:16;23.70;59.70
78184;DHT22;67442;44.570;18.610;2023-05-07T05:47:43;23.70;59.70
78184;DHT22;67442;44.570;18.610;2023-05-07T05:50:11;23.70;59.80
78184;DHT22;67442;44.570;18.610;2023-05-07T05:52:37;23.70;59.80
78184;DHT22;67442;44.570;18.610;2023-05-07T05:55:06;23.70;59.80
78184;DHT22;67442;44.570;18.610;2023-05-07T05:57:33;23.70;59.80
78184;DHT22;67442;44.570;18.610;2023-05-07T06:00:01;23.70;59.80
78184;DHT22;67442;44.570;18.610;2023-05-07T06:02:28;23.70;59.90
78184;DHT22;67442;44.570;18.610;2023-05-07T06:04:56;23.70;59.90
78184;DHT22;67442;44.570;18.610;2023-05-07T06:07:23;23.70;59.90
78184;DHT22;67442;44.570;18.610;2023-05-07T06:09:53;23.70;59.90
78184;DHT22;67442;44.570;18.610;2023-05-07T06:12:21;23.70;60.00
78184;DHT22;67442;44.570;18.610;2023-05-07T06:14:51;23.70;60.00
78184;DHT22;67442;44.570;18.610;2023-05-07T06:17:22;23.70;59.90
78184;DHT22;67442;44.570;18.610;2023-05-07T06:19:50;23.70;59.90
78184;DHT22;67442;44.570;18.610;2023-05-07T06:22:17;23.70;60.00
78184;DHT22;67442;44.570;18.610;2023-05-07T06:24:44;23.70;60.00
78184;DHT22;67442;44.570;18.610;2023-05-07T06:27:15;23.70;60.00
78184;DHT22;67442;44.570;18.610;2023-05-07T06:29:43;23.70;60.00
78184;DHT22;67442;44.570;18.610;2023-05-07T06:32:13;23.70;60.00
78184;DHT22;67442;44.570;18.610;2023-05-07T06:34:41;23.70;60.00
78184;DHT22;67442;44.570;18.610;2023-05-07T06:37:10;23.70;60.00
78184;DHT22;67442;44.570;18.610;2023-05-07T06:39:38;23.70;59.90
78184;DHT22;67442;44.570;18.610;2023-05-07T06:42:09;23.70;59.90
78184;DHT22;67442;44.570;18.610;2023-05-07T06:44:37;23.70;59.90
78184;DHT22;67442;44.570;18.610;2023-05-07T06:47:04;23.70;59.90
78184;DHT22;67442;44.570;18.610;2023-05-07T06:49:31;23.70;59.90
78184;DHT22;67442;44.570;18.610;2023-05-07T06:51:59;23.70;60.00
78184;DHT22;67442;44.570;18.610;2023-05-07T06:54:26;23.70;60.10
78184;DHT22;67442;44.570;18.610;2023-05-07T06:56:54;23.70;60.20
78184;DHT22;67442;44.570;18.610;2023-05-07T06:59:21;23.70;60.00
78184;DHT22;67442;44.570;18.610;2023-05-07T07:01:48;23.70;59.90
78184;DHT22;67442;44.570;18.610;2023-05-07T07:04:19;23.70;59.40
78184;DHT22;67442;44.570;18.610;2023-05-07T07:06:53;23.70;58.30
78184;DHT22;67442;44.570;18.610;2023-05-07T07:09:20;23.70;58.20
78184;DHT22;67442;44.570;18.610;2023-05-07T07:11:48;23.70;58.20
78184;DHT22;67442;44.570;18.610;2023-05-07T07:14:15;23.70;57.50
78184;DHT22;67442;44.570;18.610;2023-05-07T07:16:42;23.70;56.80
78184;DHT22;67442;44.570;18.610;2023-05-07T07:19:10;23.70;56.60
78184;DHT22;67442;44.570;18.610;2023-05-07T07:21:37;23.60;56.40
78184;DHT22;67442;44.570;18.610;2023-05-07T07:24:05;23.60;56.00
78184;DHT22;67442;44.570;18.610;2023-05-07T07:26:33;23.60;55.70
78184;DHT22;67442;44.570;18.610;2023-05-07T07:29:00;23.60;55.80
78184;DHT22;67442;44.570;18.610;2023-05-07T07:31:31;23.60;55.60
78184;DHT22;67442;44.570;18.610;2023-05-07T07:33:59;23.60;55.70
78184;DHT22;67442;44.570;18.610;2023-05-07T07:36:27;23.60;55.80
78184;DHT22;67442;44.570;18.610;2023-05-07T07:38:57;23.60;55.70
78184;DHT22;67442;44.570;18.610;2023-05-07T07:41:24;23.60;55.70
78184;DHT22;67442;44.570;18.610;2023-05-07T07:43:50;23.60;55.50
78184;DHT22;67442;44.570;18.610;2023-05-07T07:46:17;23.60;55.60
78184;DHT22;67442;44.570;18.610;2023-05-07T07:48:45;23.60;55.60
78184;DHT22;67442;44.570;18.610;2023-05-07T07:51:12;23.60;55.50
78184;DHT22;67442;44.570;18.610;2023-05-07T07:53:39;23.60;56.20
78184;DHT22;67442;44.570;18.610;2023-05-07T07:56:11;23.60;56.70
78184;DHT22;67442;44.570;18.610;2023-05-07T07:58:38;23.60;56.80
78184;DHT22;67442;44.570;18.610;2023-05-07T08:01:09;23.60;56.20
78184;DHT22;67442;44.570;18.610;2023-05-07T08:03:38;23.60;56.20
78184;DHT22;67442;44.570;18.610;2023-05-07T08:06:06;23.60;55.80
78184;DHT22;67442;44.570;18.610;2023-05-07T08:08:37;23.60;55.80
78184;DHT22;67442;44.570;18.610;2023-05-07T08:11:04;23.60;56.10
78184;DHT22;67442;44.570;18.610;2023-05-07T08:13:35;23.60;56.10
78184;DHT22;67442;44.570;18.610;2023-05-07T08:16:03;23.60;56.40
78184;DHT22;67442;44.570;18.610;2023-05-07T08:18:35;23.60;56.80
78184;DHT22;67442;44.570;18.610;2023-05-07T08:21:02;23.60;56.80
78184;DHT22;67442;44.570;18.610;2023-05-07T08:23:29;23.60;56.80
78184;DHT22;67442;44.570;18.610;2023-05-07T08:25:56;23.60;56.70
78184;DHT22;67442;44.570;18.610;2023-05-07T08:28:23;23.60;57.00
78184;DHT22;67442;44.570;18.610;2023-05-07T08:30:51;23.60;57.00
78184;DHT22;67442;44.570;18.610;2023-05-07T08:33:22;23.60;57.00
78184;DHT22;67442;44.570;18.610;2023-05-07T08:35:50;23.60;57.00
78184;DHT22;67442;44.570;18.610;2023-05-07T08:38:21;23.60;57.10
78184;DHT22;67442;44.570;18.610;2023-05-07T08:40:51;23.60;57.10
78184;DHT22;67442;44.570;18.610;2023-05-07T08:43:19;23.60;57.00
78184;DHT22;67442;44.570;18.610;2023-05-07T08:45:48;23.60;56.80
78184;DHT22;67442;44.570;18.610;2023-05-07T08:48:16;23.60;56.50
78184;DHT22;67442;44.570;18.610;2023-05-07T08:50:48;23.60;56.40
78184;DHT22;67442;44.570;18.610;2023-05-07T08:53:20;23.60;56.40
78184;DHT22;67442;44.570;18.610;2023-05-07T08:55:48;23.60;56.40
78184;DHT22;67442;44.570;18.610;2023-05-07T08:58:15;23.60;56.50
78184;DHT22;67442;44.570;18.610;2023-05-07T09:00:42;23.60;56.60
78184;DHT22;67442;44.570;18.610;2023-05-07T09:03:09;23.60;56.50
78184;DHT22;67442;44.570;18.610;2023-05-07T09:05:39;23.60;56.40
78184;DHT22;67442;44.570;18.610;2023-05-07T09:08:07;23.60;56.40
78184;DHT22;67442;44.570;18.610;2023-05-07T09:10:38;23.60;56.30
78184;DHT22;67442;44.570;18.610;2023-05-07T09:13:05;23.60;56.40
78184;DHT22;67442;44.570;18.610;2023-05-07T09:15:32;23.60;56.50
78184;DHT22;67442;44.570;18.610;2023-05-07T09:18:00;23.60;56.60
78184;DHT22;67442;44.570;18.610;2023-05-07T09:20:29;23.60;56.60
78184;DHT22;67442;44.570;18.610;2023-05-07T09:23:00;23.60;56.70
78184;DHT22;67442;44.570;18.610;2023-05-07T09:25:29;23.60;56.60
78184;DHT22;67442;44.570;18.610;2023-05-07T09:27:57;23.50;56.60
78184;DHT22;67442;44.570;18.610;2023-05-07T09:30:28;23.60;56.60
78184;DHT22;67442;44.570;18.610;2023-05-07T09:32:57;23.60;56.50
78184;DHT22;67442;44.570;18.610;2023-05-07T09:35:25;23.60;56.20
78184;DHT22;67442;44.570;18.610;2023-05-07T09:37:54;23.60;56.00
78184;DHT22;67442;44.570;18.610;2023-05-07T09:40:31;23.60;56.20
78184;DHT22;67442;44.570;18.610;2023-05-07T09:43:12;23.60;55.50
78184;DHT22;67442;44.570;18.610;2023-05-07T09:45:43;23.60;55.00
78184;DHT22;67442;44.570;18.610;2023-05-07T09:48:11;23.60;54.90
78184;DHT22;67442;44.570;18.610;2023-05-07T09:50:49;23.60;55.30
78184;DHT22;67442;44.570;18.610;2023-05-07T09:53:19;23.60;54.90
78184;DHT22;67442;44.570;18.610;2023-05-07T09:55:47;23.60;54.80
78184;DHT22;67442;44.570;18.610;2023-05-07T09:58:15;23.60;55.20
78184;DHT22;67442;44.570;18.610;2023-05-07T10:00:46;23.60;55.50
78184;DHT22;67442;44.570;18.610;2023-05-07T10:03:14;23.60;55.90
78184;DHT22;67442;44.570;18.610;2023-05-07T10:05:42;23.60;55.80
78184;DHT22;67442;44.570;18.610;2023-05-07T10:08:14;23.60;55.60
78184;DHT22;67442;44.570;18.610;2023-05-07T10:10:43;23.60;55.70
78184;DHT22;67442;44.570;18.610;2023-05-07T10:13:11;23.60;55.80
78184;DHT22;67442;44.570;18.610;2023-05-07T10:15:38;23.60;55.70
78184;DHT22;67442;44.570;18.610;2023-05-07T10:18:06;23.60;55.70
78184;DHT22;67442;44.570;18.610;2023-05-07T10:20:34;23.60;55.50
78184;DHT22;67442;44.570;18.610;2023-05-07T10:23:05;23.60;55.40
78184;DHT22;67442;44.570;18.610;2023-05-07T10:25:33;23.60;55.10
78184;DHT22;67442;44.570;18.610;2023-05-07T10:28:03;23.70;55.10
78184;DHT22;67442;44.570;18.610;2023-05-07T10:33:25;23.60;55.20
78184;DHT22;67442;44.570;18.610;2023-05-07T10:35:57;23.60;55.00
78184;DHT22;67442;44.570;18.610;2023-05-07T10:38:30;23.60;54.40
78184;DHT22;67442;44.570;18.610;2023-05-07T10:40:56;23.60;54.30
78184;DHT22;67442;44.570;18.610;2023-05-07T10:43:23;23.60;54.30
78184;DHT22;67442;44.570;18.610;2023-05-07T10:46:25;23.60;54.20
78184;DHT22;67442;44.570;18.610;2023-05-07T10:51:35;23.60;53.90
78184;DHT22;67442;44.570;18.610;2023-05-07T10:56:41;23.60;53.90
78184;DHT22;67442;44.570;18.610;2023-05-07T11:04:26;23.60;54.30
78184;DHT22;67442;44.570;18.610;2023-05-07T11:17:34;23.60;54.30
78184;DHT22;67442;44.570;18.610;2023-05-07T11:20:07;23.60;54.30
78184;DHT22;67442;44.570;18.610;2023-05-07T11:25:03;23.60;54.40
78184;DHT22;67442;44.570;18.610;2023-05-07T11:27:29;23.60;54.30
78184;DHT22;67442;44.570;18.610;2023-05-07T11:29:57;23.60;54.30
78184;DHT22;67442;44.570;18.610;2023-05-07T11:32:31;23.60;54.30
78184;DHT22;67442;44.570;18.610;2023-05-07T11:35:00;23.60;54.00
78184;DHT22;67442;44.570;18.610;2023-05-07T11:37:31;23.60;53.80
78184;DHT22;67442;44.570;18.610;2023-05-07T11:40:08;23.60;53.70
78184;DHT22;67442;44.570;18.610;2023-05-07T11:42:38;23.60;53.50
78184;DHT22;67442;44.570;18.610;2023-05-07T11:45:09;23.60;53.70
78184;DHT22;67442;44.570;18.610;2023-05-07T11:47:42;23.60;53.90
78184;DHT22;67442;44.570;18.610;2023-05-07T11:50:09;23.60;53.90
78184;DHT22;67442;44.570;18.610;2023-05-07T11:52:37;23.60;54.00
78184;DHT22;67442;44.570;18.610;2023-05-07T11:55:06;23.60;54.00
78184;DHT22;67442;44.570;18.610;2023-05-07T11:57:34;23.60;53.90
78184;DHT22;67442;44.570;18.610;2023-05-07T12:00:07;23.60;53.90
78184;DHT22;67442;44.570;18.610;2023-05-07T12:02:36;23.60;53.80
78184;DHT22;67442;44.570;18.610;2023-05-07T12:05:08;23.60;53.70
78184;DHT22;67442;44.570;18.610;2023-05-07T12:07:39;23.60;53.70
78184;DHT22;67442;44.570;18.610;2023-05-07T12:10:06;23.60;53.60
78184;DHT22;67442;44.570;18.610;2023-05-07T12:12:45;23.60;53.60
78184;DHT22;67442;44.570;18.610;2023-05-07T12:15:16;23.60;53.60
78184;DHT22;67442;44.570;18.610;2023-05-07T12:17:47;23.60;53.50
78184;DHT22;67442;44.570;18.610;2023-05-07T12:20:15;23.60;53.50
78184;DHT22;67442;44.570;18.610;2023-05-07T12:22:42;23.60;53.40
78184;DHT22;67442;44.570;18.610;2023-05-07T12:25:10;23.60;53.40
78184;DHT22;67442;44.570;18.610;2023-05-07T12:27:38;23.60;53.40
78184;DHT22;67442;44.570;18.610;2023-05-07T12:30:08;23.50;53.30
78184;DHT22;67442;44.570;18.610;2023-05-07T12:32:37;23.60;53.50
78184;DHT22;67442;44.570;18.610;2023-05-07T12:35:06;23.60;53.50
78184;DHT22;67442;44.570;18.610;2023-05-07T12:37:33;23.60;53.60
78184;DHT22;67442;44.570;18.610;2023-05-07T12:40:09;23.60;53.70
78184;DHT22;67442;44.570;18.610;2023-05-07T12:42:37;23.60;53.60
78184;DHT22;67442;44.570;18.610;2023-05-07T12:45:12;23.60;53.70
78184;DHT22;67442;44.570;18.610;2023-05-07T12:47:43;23.60;53.70
78184;DHT22;67442;44.570;18.610;2023-05-07T12:50:09;23.60;53.70
78184;DHT22;67442;44.570;18.610;2023-05-07T12:52:40;23.60;54.40
78184;DHT22;67442;44.570;18.610;2023-05-07T12:55:14;23.60;53.70
78184;DHT22;67442;44.570;18.610;2023-05-07T12:57:45;23.60;53.60
78184;DHT22;67442;44.570;18.610;2023-05-07T13:00:12;23.60;53.70
78184;DHT22;67442;44.570;18.610;2023-05-07T13:02:42;23.60;53.40
78184;DHT22;67442;44.570;18.610;2023-05-07T13:05:13;23.60;53.40
78184;DHT22;67442;44.570;18.610;2023-05-07T13:07:40;23.60;53.40
78184;DHT22;67442;44.570;18.610;2023-05-07T13:10:10;23.60;53.40
78184;DHT22;67442;44.570;18.610;2023-05-07T13:12:38;23.60;53.40
78184;DHT22;67442;44.570;18.610;2023-05-07T13:15:06;23.60;53.30
78184;DHT22;67442;44.570;18.610;2023-05-07T13:17:33;23.60;53.30
78184;DHT22;67442;44.570;18.610;2023-05-07T13:20:01;23.60;53.20
78184;DHT22;67442;44.570;18.610;2023-05-07T13:22:28;23.60;53.30
78184;DHT22;67442;44.570;18.610;2023-05-07T13:24:55;23.60;53.10
78184;DHT22;67442;44.570;18.610;2023-05-07T13:27:26;23.60;53.10
78184;DHT22;67442;44.570;18.610;2023-05-07T13:29:59;23.60;53.30
78184;DHT22;67442;44.570;18.610;2023-05-07T13:32:27;23.60;53.30
78184;DHT22;67442;44.570;18.610;2023-05-07T13:34:54;23.60;53.10
78184;DHT22;67442;44.570;18.610;2023-05-07T13:37:22;23.60;53.10
78184;DHT22;67442;44.570;18.610;2023-05-07T13:39:49;23.60;53.10
78184;DHT22;67442;44.570;18.610;2023-05-07T13:42:17;23.60;52.80
78184;DHT22;67442;44.570;18.610;2023-05-07T13:44:48;23.60;52.80
78184;DHT22;67442;44.570;18.610;2023-05-07T13:47:16;23.60;52.70
78184;DHT22;67442;44.570;18.610;2023-05-07T13:49:46;23.60;52.80
78184;DHT22;67442;44.570;18.610;2023-05-07T13:52:16;23.60;52.70
78184;DHT22;67442;44.570;18.610;2023-05-07T13:54:44;23.60;52.70
78184;DHT22;67442;44.570;18.610;2023-05-07T13:57:11;23.60;52.80
78184;DHT22;67442;44.570;18.610;2023-05-07T13:59:39;23.60;52.90
78184;DHT22;67442;44.570;18.610;2023-05-07T14:02:09;23.60;52.80
78184;DHT22;67442;44.570;18.610;2023-05-07T14:04:37;23.60;52.60
78184;DHT22;67442;44.570;18.610;2023-05-07T14:07:04;23.60;52.60
78184;DHT22;67442;44.570;18.610;2023-05-07T14:09:31;23.60;52.50
78184;DHT22;67442;44.570;18.610;2023-05-07T14:11:59;23.60;52.60
78184;DHT22;67442;44.570;18.610;2023-05-07T14:14:30;23.60;52.90
78184;DHT22;67442;44.570;18.610;2023-05-07T14:16:57;23.60;53.10
78184;DHT22;67442;44.570;18.610;2023-05-07T14:19:25;23.60;53.20
78184;DHT22;67442;44.570;18.610;2023-05-07T14:21:56;23.60;53.10
78184;DHT22;67442;44.570;18.610;2023-05-07T14:24:24;23.60;53.00
78184;DHT22;67442;44.570;18.610;2023-05-07T14:26:51;23.60;53.20
78184;DHT22;67442;44.570;18.610;2023-05-07T14:29:19;23.60;53.30
78184;DHT22;67442;44.570;18.610;2023-05-07T14:31:46;23.60;53.30
78184;DHT22;67442;44.570;18.610;2023-05-07T14:34:13;23.60;53.30
78184;DHT22;67442;44.570;18.610;2023-05-07T14:36:41;23.60;53.20
78184;DHT22;67442;44.570;18.610;2023-05-07T14:39:09;23.60;53.10
78184;DHT22;67442;44.570;18.610;2023-05-07T14:41:36;23.60;52.90
78184;DHT22;67442;44.570;18.610;2023-05-07T14:44:04;23.60;53.00
78184;DHT22;67442;44.570;18.610;2023-05-07T14:46:32;23.60;53.10
78184;DHT22;67442;44.570;18.610;2023-05-07T14:48:59;23.70;53.20
78184;DHT22;67442;44.570;18.610;2023-05-07T14:51:26;23.60;53.10
78184;DHT22;67442;44.570;18.610;2023-05-07T14:53:54;23.60;53.00
78184;DHT22;67442;44.570;18.610;2023-05-07T14:56:22;23.60;52.90
78184;DHT22;67442;44.570;18.610;2023-05-07T14:58:49;23.70;52.90
78184;DHT22;67442;44.570;18.610;2023-05-07T15:01:20;23.70;52.80
78184;DHT22;67442;44.570;18.610;2023-05-07T15:03:48;23.60;52.60
78184;DHT22;67442;44.570;18.610;2023-05-07T15:06:15;23.70;52.60
78184;DHT22;67442;44.570;18.610;2023-05-07T15:08:42;23.60;52.50
78184;DHT22;67442;44.570;18.610;2023-05-07T15:11:10;23.60;52.40
78184;DHT22;67442;44.570;18.610;2023-05-07T15:13:37;23.70;52.50
78184;DHT22;67442;44.570;18.610;2023-05-07T15:16:05;23.70;52.50
78184;DHT22;67442;44.570;18.610;2023-05-07T15:18:32;23.70;52.50
78184;DHT22;67442;44.570;18.610;2023-05-07T15:20:59;23.70;52.40
78184;DHT22;67442;44.570;18.610;2023-05-07T15:23:26;23.70;52.40
78184;DHT22;67442;44.570;18.610;2023-05-07T15:25:57;23.70;52.40
78184;DHT22;67442;44.570;18.610;2023-05-07T15:28:30;23.70;52.50
78184;DHT22;67442;44.570;18.610;2023-05-07T15:30:57;23.70;52.60
78184;DHT22;67442;44.570;18.610;2023-05-07T15:33:28;23.70;52.50
78184;DHT22;67442;44.570;18.610;2023-05-07T15:35:55;23.70;52.50
78184;DHT22;67442;44.570;18.610;2023-05-07T15:38:26;23.70;52.50
78184;DHT22;67442;44.570;18.610;2023-05-07T15:40:53;23.70;52.20
78184;DHT22;67442;44.570;18.610;2023-05-07T15:43:24;23.70;52.10
78184;DHT22;67442;44.570;18.610;2023-05-07T15:45:56;23.70;52.10
78184;DHT22;67442;44.570;18.610;2023-05-07T15:48:23;23.70;51.80
78184;DHT22;67442;44.570;18.610;2023-05-07T15:50:51;23.70;51.60